Terminal Aerodrome Forecast
Issued by NWS Bismarck, ND

Home | Current Version | Previous Version | Graphics & Text | Print | Product List | Glossary Off
Versions: 1 2 3 4 5 6 7 8 9 10 11 12 13 14 15 16 17 18 19 20 21

934
FTUS43 KBIS 210809 AAC
TAFISN
TAF AMD
KISN 210809Z 2108/2206 VRB02KT 5SM BR BKN110
      TEMPO 2108/2111 1 1/2SM BR SCT002 BKN005
     FM211100 28004KT 3/4SM BR BKN002
     FM211500 28006KT 5SM BR SCT003 BKN035
     FM220100 30006KT 4SM BR BKN007 OVC015=

USA.gov is the U.S. government's official web portal to all federal, state and local government web resources and services.